SBKP/CPQ METAR and TAF weather

Enter ICAO airport designator
Station Type Date Time Source
SBKP METAR 2020/06/05 10:22 UTC NOAA

SBKP 051022Z 12004KT 4000 -RA BR NSC 18/16 Q1023


Station Type Date Time Source
SBKP Decoded METAR 2020/06/05 10:22 UTC NOAA

Campinas Aeroporto , Brazil (SBKP) 23-00S 047-08W 661M
Jun 05, 2020 - 06:22 AM EDT / 2020.06.05 1022 UTC
Wind: from the ESE (120 degrees) at 5 MPH (4 KT):0
Visibility: 2 mile(s):0
Weather: light rain; mist
Temperature: 64 F (18 C)
Dew Point: 60 F (16 C)
Relative Humidity: 88%
Pressure (altimeter): 30.21 in. Hg (1023 hPa)
ob: SBKP 051022Z 12004KT 4000 -RA BR NSC 18/16 Q1023
cycle: 10

Station Type Date Time Source
SBKP TAF 2020/06/05 12:19 UTC NOAA

TAF SBKP 051000Z 0512/0612 12005KT 5000 BR NSC TN18/0512Z TX26/0518Z
BECMG 0513/0515 9999 NSW SCT040 PROB30 0515/0517 VRB02KT
BECMG 0518/0520 19005KT CAVOK
BECMG 0520/0522 08007KT
BECMG 0600/0602 06013KT BKN040
BECMG 0610/0612 35015KT
RMK PHH

Example: see airport list